Time;durP1;ratioP1;P1;durP2;ratioP2;P2;SDS_P1;SDS_P2;PMS_P1;PMS_P2;Temp;Humidity;BMP_temperature;BMP_pressure;BME280_temperature;BME280_humidity;BME280_pressure;Samples;Min_cycle;Max_cycle;Signal;HPM_P1;HPM_P2
2020/12/10 00:01:25;;;;;;;30.43;22.60;;;1.30;99.90;;;;;;5093594;28;20174;-66
2020/12/10 00:03:50;;;;;;;36.73;25.50;;;1.30;99.90;;;;;;5093249;28;20153;-66
2020/12/10 00:06:18;;;;;;;32.90;24.60;;;1.30;99.90;;;;;;5093345;28;20614;-65
2020/12/10 00:08:43;;;;;;;30.57;22.30;;;1.30;99.90;;;;;;5093446;28;20162;-66
2020/12/10 00:11:09;;;;;;;30.57;22.70;;;1.30;99.90;;;;;;5087826;28;20449;-66
2020/12/10 00:13:34;;;;;;;34.50;24.27;;;1.30;99.90;;;;;;5079691;28;20582;-66
2020/12/10 00:16:00;;;;;;;31.67;22.33;;;1.30;99.90;;;;;;5093430;28;20161;-65
2020/12/10 00:18:25;;;;;;;31.50;22.90;;;1.30;99.90;;;;;;5093019;28;20189;-66
2020/12/10 00:20:51;;;;;;;35.37;23.87;;;1.30;99.90;;;;;;5093176;28;20185;-65
2020/12/10 00:23:16;;;;;;;34.97;25.00;;;1.30;99.90;;;;;;5093045;28;20182;-66
2020/12/10 00:25:42;;;;;;;29.20;21.17;;;1.20;99.90;;;;;;5093040;28;20157;-65
2020/12/10 00:28:07;;;;;;;28.43;21.73;;;1.20;99.90;;;;;;5092956;28;20161;-66
2020/12/10 00:30:33;;;;;;;31.90;22.40;;;1.20;99.90;;;;;;5092497;28;20176;-66
2020/12/10 00:32:58;;;;;;;30.20;21.60;;;1.20;99.90;;;;;;5093329;28;20551;-66
2020/12/10 00:35:24;;;;;;;33.17;23.33;;;1.20;99.90;;;;;;5092883;28;20244;-66
2020/12/10 00:37:50;;;;;;;33.50;24.30;;;1.30;99.90;;;;;;5092785;28;20287;-66
2020/12/10 00:40:15;;;;;;;31.80;22.53;;;1.20;99.90;;;;;;5092884;28;20207;-66
2020/12/10 00:42:41;;;;;;;33.80;25.10;;;1.30;99.90;;;;;;5074948;28;20269;-66
2020/12/10 00:45:06;;;;;;;33.57;23.40;;;1.30;99.90;;;;;;5072867;28;20536;-66
2020/12/10 00:47:32;;;;;;;32.67;24.47;;;1.30;99.90;;;;;;5073528;28;20186;-65
2020/12/10 00:49:57;;;;;;;30.77;22.10;;;1.20;99.90;;;;;;5072483;28;20209;-66
2020/12/10 00:52:24;;;;;;;32.60;22.83;;;1.20;99.90;;;;;;5072615;28;20158;-66
2020/12/10 00:54:50;;;;;;;34.20;24.80;;;1.20;99.90;;;;;;5072678;28;20166;-66
2020/12/10 00:57:15;;;;;;;34.37;25.27;;;1.20;99.90;;;;;;5072397;28;20448;-66
2020/12/10 00:59:40;;;;;;;35.60;26.30;;;1.20;99.90;;;;;;5072802;28;20515;-66
2020/12/10 01:02:07;;;;;;;34.00;24.37;;;1.20;99.90;;;;;;5072471;28;20169;-65
2020/12/10 01:04:33;;;;;;;34.93;26.17;;;1.20;99.90;;;;;;5072947;28;20648;-66
2020/12/10 01:06:59;;;;;;;34.10;22.40;;;1.20;99.90;;;;;;5072396;28;20390;-65
2020/12/10 01:09:24;;;;;;;31.97;24.23;;;1.20;99.90;;;;;;5072464;28;20155;-66
2020/12/10 01:11:50;;;;;;;35.97;24.57;;;1.20;99.90;;;;;;5084944;28;20177;-66
2020/12/10 01:14:17;;;;;;;32.13;21.80;;;1.20;99.90;;;;;;5092910;28;20170;-65
2020/12/10 01:16:43;;;;;;;32.47;23.67;;;1.20;99.90;;;;;;5092556;28;20153;-66
2020/12/10 01:19:08;;;;;;;33.70;22.73;;;1.20;99.90;;;;;;5092409;28;20447;-66
2020/12/10 01:21:35;;;;;;;31.47;22.70;;;1.20;99.90;;;;;;5085319;28;20191;-65
2020/12/10 01:24:02;;;;;;;30.80;22.63;;;1.10;99.90;;;;;;5072993;28;20216;-66
2020/12/10 01:26:30;;;;;;;37.90;23.80;;;1.10;99.90;;;;;;5076095;28;20882;-66
2020/12/10 01:28:56;;;;;;;33.90;25.10;;;1.10;99.90;;;;;;5076103;28;20955;-65
2020/12/10 01:31:22;;;;;;;31.00;24.07;;;1.10;99.90;;;;;;5075913;28;20397;-65
2020/12/10 01:33:47;;;;;;;32.80;22.80;;;1.10;99.90;;;;;;5075946;28;20886;-66
2020/12/10 01:36:16;;;;;;;32.83;25.00;;;1.10;99.90;;;;;;5075861;28;20200;-65
2020/12/10 01:38:42;;;;;;;32.93;23.10;;;1.10;99.90;;;;;;5076253;28;20641;-66
2020/12/10 01:41:07;;;;;;;36.77;25.80;;;1.10;99.90;;;;;;5082409;28;20514;-66
2020/12/10 01:43:33;;;;;;;34.77;23.10;;;1.10;99.90;;;;;;5096031;28;20504;-66
2020/12/10 01:45:58;;;;;;;33.53;24.97;;;1.10;99.90;;;;;;5095946;28;20150;-65
2020/12/10 01:48:24;;;;;;;34.43;24.80;;;1.20;99.90;;;;;;5095979;28;20166;-65
2020/12/10 01:50:50;;;;;;;36.13;25.63;;;1.20;99.90;;;;;;5077430;28;20653;-66
2020/12/10 01:53:15;;;;;;;35.00;24.30;;;1.30;99.90;;;;;;5075622;28;20174;-65
2020/12/10 01:55:41;;;;;;;33.73;23.87;;;1.30;99.90;;;;;;5083350;28;20174;-65
2020/12/10 01:58:06;;;;;;;37.40;25.37;;;1.30;99.90;;;;;;5095615;28;20185;-66
2020/12/10 02:00:32;;;;;;;35.27;24.83;;;1.30;99.90;;;;;;5095499;28;20248;-65
2020/12/10 02:02:58;;;;;;;31.63;23.40;;;1.20;99.90;;;;;;5095606;28;20162;-65
2020/12/10 02:05:24;;;;;;;33.60;22.37;;;1.30;99.90;;;;;;5095654;28;20161;-66
2020/12/10 02:07:50;;;;;;;32.67;24.10;;;1.30;99.90;;;;;;5095497;28;20443;-66
2020/12/10 02:10:16;;;;;;;35.33;25.13;;;1.40;99.90;;;;;;5091476;28;20189;-66
2020/12/10 02:12:42;;;;;;;39.50;25.50;;;1.40;99.90;;;;;;5082895;28;20408;-66
2020/12/10 02:15:08;;;;;;;33.13;25.57;;;1.40;99.90;;;;;;5095399;28;20187;-65
2020/12/10 02:17:34;;;;;;;37.13;26.77;;;1.40;99.90;;;;;;5095283;28;20538;-65
2020/12/10 02:20:00;;;;;;;32.43;24.80;;;1.50;99.90;;;;;;5079106;28;20439;-66
2020/12/10 02:22:25;;;;;;;34.30;24.60;;;1.50;99.90;;;;;;5075230;28;20393;-66
2020/12/10 02:24:51;;;;;;;37.90;25.60;;;1.50;99.90;;;;;;5075280;28;20181;-65
2020/12/10 02:27:16;;;;;;;33.13;23.63;;;1.50;99.90;;;;;;5074948;28;20156;-65
2020/12/10 02:29:42;;;;;;;33.23;23.43;;;1.50;99.90;;;;;;5082961;28;20180;-65
2020/12/10 02:32:07;;;;;;;34.93;26.17;;;1.50;99.90;;;;;;5095378;28;20151;-66
2020/12/10 02:34:33;;;;;;;34.90;26.10;;;1.50;99.90;;;;;;5094881;28;20170;-66
2020/12/10 02:36:58;;;;;;;37.60;25.13;;;1.60;99.90;;;;;;5095225;28;20222;-66
2020/12/10 02:39:24;;;;;;;37.60;26.30;;;1.60;99.90;;;;;;5095079;28;20163;-66
2020/12/10 02:41:49;;;;;;;34.17;23.33;;;1.60;99.90;;;;;;5077728;28;20171;-65
2020/12/10 02:44:15;;;;;;;37.50;25.60;;;1.60;99.90;;;;;;5074406;28;20639;-66
2020/12/10 02:46:41;;;;;;;35.00;24.13;;;1.60;99.90;;;;;;5075117;28;20698;-66
2020/12/10 02:49:06;;;;;;;37.30;26.60;;;1.60;99.90;;;;;;5074515;28;20241;-66
2020/12/10 02:51:32;;;;;;;34.40;23.60;;;1.60;99.90;;;;;;5074648;28;20170;-65
2020/12/10 02:53:57;;;;;;;34.27;25.30;;;1.60;99.90;;;;;;5074441;28;20208;-66
2020/12/10 02:56:23;;;;;;;34.57;23.73;;;1.70;99.90;;;;;;5074329;28;20170;-66
2020/12/10 02:58:48;;;;;;;36.73;26.30;;;1.70;99.90;;;;;;5074202;28;20724;-66
2020/12/10 03:01:14;;;;;;;41.27;27.40;;;1.70;99.90;;;;;;5074376;28;20213;-66
2020/12/10 03:03:39;;;;;;;38.67;26.07;;;1.60;99.90;;;;;;5074918;28;20170;-66
2020/12/10 03:06:06;;;;;;;35.43;25.47;;;1.70;99.90;;;;;;5074252;28;20535;-66
2020/12/10 03:08:32;;;;;;;36.03;26.20;;;1.70;99.90;;;;;;5074077;28;20170;-66
2020/12/10 03:10:59;;;;;;;39.17;25.70;;;1.60;99.90;;;;;;5074954;28;20460;-65
2020/12/10 03:13:24;;;;;;;35.50;25.60;;;1.60;99.90;;;;;;5074098;28;20427;-66
2020/12/10 03:15:50;;;;;;;37.23;25.93;;;1.50;99.90;;;;;;5074175;28;20432;-65
2020/12/10 03:18:15;;;;;;;42.10;27.53;;;1.50;99.90;;;;;;5073892;28;20197;-66
2020/12/10 03:20:41;;;;;;;40.50;28.13;;;1.50;99.90;;;;;;5081576;28;20606;-66
2020/12/10 03:23:07;;;;;;;42.73;29.70;;;1.50;99.90;;;;;;5094022;28;20170;-65
2020/12/10 03:25:32;;;;;;;39.73;26.50;;;1.50;99.90;;;;;;5094021;28;20160;-66
2020/12/10 03:27:58;;;;;;;40.67;26.70;;;1.50;99.90;;;;;;5094265;28;20181;-65
2020/12/10 03:30:23;;;;;;;40.00;26.37;;;1.40;99.90;;;;;;5093982;28;20218;-65
2020/12/10 03:32:49;;;;;;;39.83;28.83;;;1.40;99.90;;;;;;5092822;28;20179;-66
2020/12/10 03:35:16;;;;;;;38.20;27.17;;;1.30;99.90;;;;;;5094060;28;20169;-66
2020/12/10 03:37:42;;;;;;;38.83;29.03;;;1.30;99.90;;;;;;5092814;28;20475;-65
2020/12/10 03:40:08;;;;;;;36.70;26.80;;;1.30;99.90;;;;;;5088367;28;20410;-66
2020/12/10 03:42:33;;;;;;;33.23;25.20;;;1.30;99.90;;;;;;5073576;28;20205;-66
2020/12/10 03:45:00;;;;;;;36.27;26.60;;;1.30;99.90;;;;;;5073426;28;20400;-66
2020/12/10 03:47:25;;;;;;;39.83;26.67;;;1.20;99.90;;;;;;5072955;28;20169;-66
2020/12/10 03:49:51;;;;;;;41.70;28.90;;;1.30;99.90;;;;;;5073647;28;20886;-65
2020/12/10 03:52:17;;;;;;;34.90;24.97;;;1.20;99.90;;;;;;5072140;28;20216;-66
2020/12/10 03:54:43;;;;;;;38.23;28.17;;;1.20;99.90;;;;;;5081252;28;20177;-65
2020/12/10 03:57:08;;;;;;;39.40;27.30;;;1.20;99.90;;;;;;5093912;28;20396;-65
2020/12/10 03:59:34;;;;;;;37.03;26.97;;;1.20;99.90;;;;;;5093952;28;20230;-65
2020/12/10 04:01:59;;;;;;;39.13;27.67;;;1.10;99.90;;;;;;5093967;28;20154;-66
2020/12/10 04:04:25;;;;;;;42.23;27.07;;;1.10;99.90;;;;;;5093376;28;20181;-65
2020/12/10 04:06:51;;;;;;;36.20;25.33;;;1.10;99.90;;;;;;5093535;28;20283;-66
2020/12/10 04:09:16;;;;;;;37.43;27.30;;;1.10;99.90;;;;;;5093147;28;20523;-66
2020/12/10 04:11:42;;;;;;;38.13;25.53;;;1.00;99.90;;;;;;5082850;28;20239;-66
2020/12/10 04:14:08;;;;;;;37.67;26.20;;;1.00;99.90;;;;;;5093223;28;20155;-65
2020/12/10 04:16:34;;;;;;;41.23;25.87;;;1.00;99.90;;;;;;5091996;28;20388;-66
2020/12/10 04:19:00;;;;;;;38.43;27.87;;;0.90;99.90;;;;;;5093100;28;20447;-66
2020/12/10 04:21:25;;;;;;;38.83;27.03;;;0.90;99.90;;;;;;5093210;28;20190;-65
2020/12/10 04:23:51;;;;;;;37.37;25.27;;;0.90;99.90;;;;;;5092401;28;20163;-66
2020/12/10 04:26:17;;;;;;;35.80;25.37;;;0.90;99.90;;;;;;5093371;28;20149;-66
2020/12/10 04:28:43;;;;;;;41.30;28.07;;;0.80;99.90;;;;;;5090919;28;20300;-65
2020/12/10 04:31:09;;;;;;;39.30;27.27;;;0.70;99.90;;;;;;5091889;28;20490;-66
2020/12/10 04:33:35;;;;;;;39.63;27.60;;;0.70;99.90;;;;;;5091892;28;20424;-65
2020/12/10 04:36:01;;;;;;;37.33;26.60;;;0.70;99.90;;;;;;5092873;28;20168;-66
2020/12/10 04:38:27;;;;;;;38.90;27.63;;;0.70;99.90;;;;;;5092933;28;20458;-66
2020/12/10 04:40:52;;;;;;;39.53;26.70;;;0.70;99.90;;;;;;5079048;28;20198;-65
2020/12/10 04:43:26;;;;;;;39.33;25.30;;;0.60;99.90;;;;;;5072631;28;20701;-66
2020/12/10 04:46:01;;;;;;;34.63;25.63;;;0.60;99.90;;;;;;5073278;28;20506;-66
2020/12/10 04:48:28;;;;;;;37.10;26.03;;;0.60;99.90;;;;;;5075528;28;20416;-66
2020/12/10 04:50:57;;;;;;;48.93;27.13;;;0.60;99.90;;;;;;5080976;28;20518;-65
2020/12/10 04:53:25;;;;;;;37.30;26.00;;;0.60;99.90;;;;;;5080294;28;20504;-65
2020/12/10 04:55:58;;;;;;;37.20;27.17;;;0.60;99.90;;;;;;5079452;28;20532;-65
2020/12/10 04:58:24;;;;;;;39.23;26.23;;;0.60;99.90;;;;;;5079524;28;20460;-66
2020/12/10 05:00:56;;;;;;;38.83;26.97;;;0.60;99.90;;;;;;5087543;28;20409;-65
2020/12/10 05:03:22;;;;;;;40.47;27.67;;;0.50;99.90;;;;;;5077489;28;20783;-66
2020/12/10 05:05:47;;;;;;;37.73;27.97;;;0.50;99.90;;;;;;5076862;28;20419;-65
2020/12/10 05:08:13;;;;;;;35.70;26.50;;;0.50;99.90;;;;;;5082942;28;20415;-65
2020/12/10 05:10:44;;;;;;;38.83;26.87;;;0.50;99.90;;;;;;5092133;28;20181;-65
2020/12/10 05:13:11;;;;;;;40.63;30.70;;;0.50;99.90;;;;;;5076789;28;20185;-66
2020/12/10 05:15:39;;;;;;;38.73;27.00;;;0.50;99.90;;;;;;5076617;28;20796;-65
2020/12/10 05:23:33;;;;;;;36.20;27.23;;;0.60;99.90;;;;;;5131091;27;20868;-65
2020/12/10 05:26:02;;;;;;;41.53;29.37;;;0.60;99.90;;;;;;5131384;27;20392;-65
2020/12/10 05:28:40;;;;;;;42.30;28.47;;;0.50;99.90;;;;;;5131266;27;20371;-66
2020/12/10 05:31:09;;;;;;;40.33;28.30;;;0.50;99.90;;;;;;5131853;27;20450;-65
2020/12/10 05:33:36;;;;;;;39.27;28.00;;;0.50;99.90;;;;;;5130143;28;20383;-65
2020/12/10 05:39:07;;;;;;;37.23;27.43;;;0.50;99.90;;;;;;5090533;28;21044;-65
2020/12/10 05:41:34;;;;;;;38.60;27.40;;;0.50;99.90;;;;;;5072564;28;20417;-66
2020/12/10 05:44:28;;;;;;;34.80;26.10;;;0.50;99.90;;;;;;5084947;28;20415;-65
2020/12/10 05:47:09;;;;;;;31.10;24.50;;;0.50;99.90;;;;;;5077224;28;20401;-65
2020/12/10 05:49:34;;;;;;;36.43;25.37;;;0.50;99.90;;;;;;5082164;28;20438;-65
2020/12/10 05:52:04;;;;;;;37.17;27.03;;;0.50;99.90;;;;;;5082369;28;20418;-65
2020/12/10 05:54:35;;;;;;;37.50;27.00;;;0.40;99.90;;;;;;5076283;28;20173;-66
2020/12/10 05:57:03;;;;;;;34.17;26.60;;;0.50;99.90;;;;;;5068695;28;20529;-66
2020/12/10 05:59:30;;;;;;;34.57;26.63;;;0.50;99.90;;;;;;5070210;28;20410;-65
2020/12/10 06:01:59;;;;;;;38.67;28.10;;;0.50;99.90;;;;;;5069913;28;20885;-66
2020/12/10 06:04:26;;;;;;;42.33;27.33;;;0.50;99.90;;;;;;5069732;28;20414;-65
2020/12/10 06:06:51;;;;;;;32.60;25.00;;;0.50;99.90;;;;;;5069805;28;20398;-65
2020/12/10 06:09:18;;;;;;;38.10;26.77;;;0.50;99.90;;;;;;5071516;28;20411;-66
2020/12/10 06:11:44;;;;;;;35.23;27.13;;;0.50;99.90;;;;;;5079536;28;20488;-66
2020/12/10 06:14:10;;;;;;;38.37;28.17;;;0.50;99.90;;;;;;5090313;28;20399;-66
2020/12/10 06:16:36;;;;;;;38.60;27.60;;;0.50;99.90;;;;;;5089828;28;20985;-67
2020/12/10 06:21:44;;;;;;;36.23;26.60;;;0.50;99.90;;;;;;5110891;27;20531;-66
2020/12/10 06:27:18;;;;;;;36.80;26.63;;;0.50;99.90;;;;;;5108722;27;20509;-66
2020/12/10 06:29:44;;;;;;;32.87;25.80;;;0.50;99.90;;;;;;5090422;28;20399;-66
2020/12/10 06:32:13;;;;;;;36.97;25.33;;;0.50;99.90;;;;;;5090471;28;20378;-66
2020/12/10 06:39:56;;;;;;;38.67;27.47;;;0.50;99.90;;;;;;5110051;27;20521;-65
2020/12/10 06:42:22;;;;;;;40.97;28.67;;;0.50;99.90;;;;;;5087206;28;20489;-66
2020/12/10 06:44:49;;;;;;;36.60;26.30;;;0.50;99.90;;;;;;5086820;28;20434;-66
2020/12/10 06:47:14;;;;;;;34.40;27.03;;;0.50;99.90;;;;;;5089194;28;20401;-66
2020/12/10 06:49:40;;;;;;;37.20;29.17;;;0.50;99.90;;;;;;5090018;28;20411;-66
2020/12/10 06:58:10;;;;;;;37.10;25.50;;;0.60;99.90;;;;;;5108528;27;20525;-67
2020/12/10 07:00:39;;;;;;;37.70;26.53;;;0.50;99.90;;;;;;5100336;28;20415;-67
2020/12/10 07:05:45;;;;;;;35.83;25.90;;;0.60;99.90;;;;;;5106262;27;20528;-65
2020/12/10 07:08:11;;;;;;;36.83;27.70;;;0.50;99.90;;;;;;5090273;28;20414;-66
2020/12/10 07:10:39;;;;;;;35.63;25.23;;;0.60;99.90;;;;;;5088954;28;20184;-66
2020/12/10 07:13:04;;;;;;;36.60;26.60;;;0.60;99.90;;;;;;5085988;28;20761;-66
2020/12/10 07:15:30;;;;;;;36.27;27.60;;;0.60;99.90;;;;;;5087200;28;20413;-66
2020/12/10 07:17:57;;;;;;;38.43;26.83;;;0.60;99.90;;;;;;5087535;28;20624;-66
2020/12/10 07:20:24;;;;;;;38.87;26.83;;;0.60;99.90;;;;;;5089574;28;20261;-66
2020/12/10 07:22:49;;;;;;;39.30;26.90;;;0.60;99.90;;;;;;5085389;28;20479;-65
2020/12/10 07:25:16;;;;;;;37.30;26.20;;;0.60;99.90;;;;;;5085333;28;20476;-66
2020/12/10 07:27:43;;;;;;;38.33;26.77;;;0.60;99.90;;;;;;5071807;28;20243;-66
2020/12/10 07:30:10;;;;;;;37.57;26.70;;;0.60;99.90;;;;;;5069291;28;20390;-66
2020/12/10 07:32:35;;;;;;;38.67;27.00;;;0.60;99.90;;;;;;5074167;28;20422;-66
2020/12/10 07:35:01;;;;;;;39.43;28.67;;;0.60;99.90;;;;;;5088462;28;20413;-66
2020/12/10 07:37:31;;;;;;;37.10;27.50;;;0.60;99.90;;;;;;5089921;28;20166;-65
2020/12/10 07:39:57;;;;;;;38.60;26.93;;;0.60;99.90;;;;;;5078783;28;20181;-66
2020/12/10 07:42:22;;;;;;;39.70;26.13;;;0.60;99.90;;;;;;5080343;28;20424;-66
2020/12/10 07:44:48;;;;;;;38.30;28.50;;;0.60;99.90;;;;;;5086277;28;20454;-67
2020/12/10 07:47:13;;;;;;;40.50;28.10;;;0.60;99.90;;;;;;5078549;28;20200;-66
2020/12/10 07:49:40;;;;;;;40.63;26.70;;;0.60;99.90;;;;;;5079149;28;20245;-66
2020/12/10 07:52:07;;;;;;;39.10;27.20;;;0.60;99.90;;;;;;5075408;28;20173;-66
2020/12/10 07:54:51;;;;;;;39.63;26.93;;;0.70;99.90;;;;;;5085043;28;20437;-66
2020/12/10 08:00:09;;;;;;;38.47;25.70;;;0.80;99.90;;;;;;5124541;27;20521;-66
2020/12/10 08:03:10;;;;;;;39.97;27.33;;;0.80;99.90;;;;;;5109160;28;20467;-66
2020/12/10 08:05:36;;;;;;;42.23;27.00;;;0.80;99.90;;;;;;5094536;28;20824;-66
2020/12/10 08:08:02;;;;;;;42.90;26.27;;;0.80;99.90;;;;;;5110530;28;20588;-66
2020/12/10 08:10:29;;;;;;;36.77;25.73;;;0.90;99.90;;;;;;5099243;28;20414;-66
2020/12/10 08:13:17;;;;;;;36.27;26.07;;;0.90;99.90;;;;;;5108784;28;20458;-66
2020/12/10 08:15:45;;;;;;;36.07;24.47;;;0.90;99.90;;;;;;5095662;28;20416;-66
2020/12/10 08:18:13;;;;;;;34.00;25.40;;;1.00;99.90;;;;;;5109498;28;20445;-66
2020/12/10 08:20:43;;;;;;;36.77;25.50;;;1.00;99.90;;;;;;5081072;28;20960;-65
2020/12/10 08:23:09;;;;;;;33.23;23.57;;;1.00;99.90;;;;;;5088331;28;20474;-66
2020/12/10 08:25:34;;;;;;;32.60;22.97;;;1.00;99.90;;;;;;5088257;28;20437;-66
2020/12/10 08:28:02;;;;;;;33.77;23.20;;;1.00;99.90;;;;;;5088113;28;20188;-66
2020/12/10 08:30:28;;;;;;;32.63;23.77;;;1.00;99.90;;;;;;5084428;28;20877;-66
2020/12/10 08:32:57;;;;;;;36.90;22.60;;;1.00;99.90;;;;;;5089684;28;20414;-66
2020/12/10 08:35:23;;;;;;;35.93;24.60;;;1.00;99.90;;;;;;5089252;28;20182;-66
2020/12/10 08:37:48;;;;;;;33.50;22.27;;;1.10;99.90;;;;;;5087101;28;20836;-66
2020/12/10 08:40:24;;;;;;;37.20;24.80;;;1.10;99.90;;;;;;5086137;28;20920;-66
2020/12/10 08:42:50;;;;;;;34.00;23.83;;;1.00;99.90;;;;;;5087184;28;20181;-66
2020/12/10 08:45:29;;;;;;;33.93;22.60;;;1.10;99.90;;;;;;5087682;28;20621;-66
2020/12/10 08:47:58;;;;;;;32.43;23.07;;;1.10;99.90;;;;;;5086171;28;20428;-65
2020/12/10 08:50:24;;;;;;;35.90;24.23;;;1.10;99.90;;;;;;5087987;28;20428;-66
2020/12/10 08:53:03;;;;;;;36.67;24.23;;;1.20;99.90;;;;;;5087620;28;20436;-66
2020/12/10 08:58:16;;;;;;;31.13;22.43;;;1.30;99.90;;;;;;5121596;27;20568;-66
2020/12/10 09:00:41;;;;;;;35.07;23.23;;;1.30;99.90;;;;;;5117092;28;20413;-66
2020/12/10 09:03:07;;;;;;;30.07;21.80;;;1.30;99.90;;;;;;5121170;28;20959;-66
2020/12/10 09:05:32;;;;;;;32.50;22.97;;;1.30;99.90;;;;;;5123752;28;20945;-67
2020/12/10 09:07:58;;;;;;;32.37;23.03;;;1.40;99.90;;;;;;5117669;27;20183;-66
2020/12/10 09:10:27;;;;;;;32.10;22.80;;;1.40;99.90;;;;;;5122008;28;20172;-66
2020/12/10 09:12:53;;;;;;;31.60;22.33;;;1.40;99.90;;;;;;5112252;27;20173;-66
2020/12/10 09:15:19;;;;;;;36.03;25.83;;;1.50;99.90;;;;;;5114043;28;20455;-66
2020/12/10 09:17:44;;;;;;;36.47;24.93;;;1.50;99.90;;;;;;5119544;28;20498;-66
2020/12/10 09:20:10;;;;;;;31.63;21.67;;;1.60;99.90;;;;;;5116964;28;20195;-66
2020/12/10 09:22:36;;;;;;;34.80;24.47;;;1.60;99.90;;;;;;5113876;28;20711;-66
2020/12/10 09:25:01;;;;;;;30.10;21.00;;;1.70;99.90;;;;;;5120075;28;20331;-66
2020/12/10 09:27:27;;;;;;;35.37;20.33;;;1.70;99.90;;;;;;5119035;27;20182;-66
2020/12/10 09:29:52;;;;;;;35.90;22.03;;;1.70;99.90;;;;;;5116055;27;20177;-66
2020/12/10 09:32:18;;;;;;;30.20;21.33;;;1.70;99.90;;;;;;5115139;27;20175;-66
2020/12/10 09:34:43;;;;;;;29.60;20.83;;;1.70;99.90;;;;;;5117635;28;20661;-66
2020/12/10 09:37:09;;;;;;;27.23;18.73;;;1.70;99.90;;;;;;5111893;27;20198;-66
2020/12/10 09:39:35;;;;;;;29.57;20.73;;;1.70;99.90;;;;;;5113593;27;20264;-66
2020/12/10 09:42:03;;;;;;;26.13;19.23;;;1.70;99.90;;;;;;5119802;28;20196;-67
2020/12/10 09:44:28;;;;;;;28.50;20.80;;;1.80;99.90;;;;;;5119024;27;20898;-66
2020/12/10 09:46:54;;;;;;;29.13;19.13;;;1.80;99.90;;;;;;5110247;28;20506;-66
2020/12/10 09:49:19;;;;;;;28.30;20.50;;;1.80;99.90;;;;;;5110080;28;20178;-66
2020/12/10 09:51:48;;;;;;;28.13;20.37;;;1.90;99.90;;;;;;5123384;28;20184;-66
2020/12/10 09:54:31;;;;;;;25.80;20.23;;;1.90;99.90;;;;;;5110229;28;20177;-67
2020/12/10 09:59:38;;;;;;;25.93;18.50;;;1.90;99.90;;;;;;5123469;27;20532;-65
2020/12/10 10:02:04;;;;;;;28.97;20.37;;;1.90;99.90;;;;;;5109125;28;20453;-66
2020/12/10 10:04:30;;;;;;;30.30;19.30;;;1.90;99.90;;;;;;5109551;28;20484;-65
2020/12/10 10:06:56;;;;;;;31.20;20.30;;;1.90;99.90;;;;;;5109015;28;20829;-65
2020/12/10 10:09:23;;;;;;;24.03;17.40;;;2.00;99.90;;;;;;5101233;28;20435;-66
2020/12/10 10:11:50;;;;;;;26.70;18.83;;;2.00;99.90;;;;;;5106135;28;20170;-66
2020/12/10 10:14:16;;;;;;;33.30;19.60;;;2.10;99.90;;;;;;5109766;28;20427;-65
2020/12/10 10:16:41;;;;;;;29.50;20.70;;;2.10;99.90;;;;;;5141996;27;20468;-65
2020/12/10 10:19:07;;;;;;;24.93;19.37;;;2.10;99.90;;;;;;5105796;28;20289;-66
2020/12/10 10:21:32;;;;;;;27.63;20.40;;;2.10;99.90;;;;;;5089635;28;20252;-66
2020/12/10 10:23:58;;;;;;;25.30;19.17;;;2.10;99.90;;;;;;5083946;28;20563;-66
2020/12/10 10:26:24;;;;;;;22.83;16.90;;;2.10;99.90;;;;;;5098135;28;20174;-66
2020/12/10 10:28:53;;;;;;;23.70;17.53;;;2.10;99.90;;;;;;5088755;28;20173;-66
2020/12/10 10:31:19;;;;;;;25.60;18.20;;;2.10;99.90;;;;;;5083804;28;20450;-66
2020/12/10 10:33:44;;;;;;;27.50;18.47;;;2.20;99.90;;;;;;5081581;28;20436;-66
2020/12/10 10:36:10;;;;;;;23.53;17.37;;;2.20;99.90;;;;;;5084957;28;20929;-66
2020/12/10 10:38:36;;;;;;;20.70;15.70;;;2.20;99.90;;;;;;5094574;28;20285;-66
2020/12/10 10:41:02;;;;;;;23.10;17.60;;;2.30;99.90;;;;;;5090193;28;21774;-66
2020/12/10 10:43:28;;;;;;;23.30;17.10;;;2.40;99.90;;;;;;5090219;28;20223;-66
2020/12/10 10:45:54;;;;;;;18.63;15.37;;;2.40;99.90;;;;;;5089266;28;20812;-66
2020/12/10 10:48:19;;;;;;;23.43;17.07;;;2.50;99.90;;;;;;5082252;28;20424;-66
2020/12/10 10:50:45;;;;;;;21.87;15.70;;;2.50;99.90;;;;;;5088506;28;20753;-66
2020/12/10 10:53:11;;;;;;;20.07;15.27;;;2.50;99.90;;;;;;5088549;28;20268;-67
2020/12/10 10:55:37;;;;;;;22.13;15.67;;;2.60;99.90;;;;;;5088593;28;20177;-66
2020/12/10 10:58:03;;;;;;;20.13;15.70;;;2.70;99.90;;;;;;5083234;28;20214;-66
2020/12/10 11:00:28;;;;;;;22.20;16.03;;;2.70;99.90;;;;;;5081338;28;20502;-67
2020/12/10 11:02:54;;;;;;;21.80;16.53;;;2.80;99.90;;;;;;5079124;28;20193;-66
2020/12/10 11:05:19;;;;;;;19.93;15.37;;;2.80;99.90;;;;;;5087957;28;20178;-65
2020/12/10 11:07:45;;;;;;;21.00;16.03;;;2.80;99.90;;;;;;5074933;28;20230;-66
2020/12/10 11:10:12;;;;;;;19.63;16.10;;;2.80;99.90;;;;;;5067295;28;20185;-65
2020/12/10 11:12:38;;;;;;;22.80;16.40;;;2.90;99.90;;;;;;5073029;28;20508;-66
2020/12/10 11:15:04;;;;;;;19.50;15.33;;;3.00;99.90;;;;;;5060658;28;20459;-65
2020/12/10 11:17:30;;;;;;;23.60;17.00;;;3.10;99.90;;;;;;5074588;28;20183;-65
2020/12/10 11:19:55;;;;;;;18.97;15.63;;;3.20;99.90;;;;;;5063927;28;20541;-66
2020/12/10 11:22:21;;;;;;;20.33;15.73;;;3.20;99.90;;;;;;5064120;28;20540;-66
2020/12/10 11:24:46;;;;;;;24.07;15.57;;;3.10;99.90;;;;;;5067043;28;20187;-66
2020/12/10 11:27:12;;;;;;;20.03;16.53;;;3.10;99.90;;;;;;5055894;28;20266;-66
2020/12/10 11:29:37;;;;;;;20.30;13.77;;;3.00;99.90;;;;;;5072499;28;20158;-66
2020/12/10 11:32:03;;;;;;;20.60;16.10;;;3.00;99.90;;;;;;5075183;28;20163;-66
2020/12/10 11:34:29;;;;;;;20.50;14.57;;;2.90;99.90;;;;;;5075683;28;20175;-66
2020/12/10 11:36:56;;;;;;;17.50;14.60;;;2.90;99.90;;;;;;5074818;28;20518;-66
2020/12/10 11:39:21;;;;;;;20.50;15.20;;;2.90;99.90;;;;;;5064470;28;20772;-66
2020/12/10 11:41:47;;;;;;;18.03;13.80;;;2.90;99.90;;;;;;5074547;28;20400;-66
2020/12/10 11:44:12;;;;;;;18.57;13.03;;;2.90;99.90;;;;;;5073871;28;20166;-66
2020/12/10 11:46:38;;;;;;;18.67;14.20;;;3.00;99.90;;;;;;5074681;28;20229;-66
2020/12/10 11:49:03;;;;;;;16.13;14.43;;;3.00;99.90;;;;;;5074583;28;20613;-66
2020/12/10 11:51:32;;;;;;;17.27;13.57;;;3.10;99.90;;;;;;5086476;28;20231;-66
2020/12/10 11:53:59;;;;;;;18.30;14.03;;;3.10;99.90;;;;;;5074777;28;20539;-66
2020/12/10 11:56:25;;;;;;;16.80;13.77;;;3.10;99.90;;;;;;5073697;28;20456;-66
2020/12/10 11:58:50;;;;;;;16.03;13.07;;;3.10;99.90;;;;;;5073843;28;20500;-66
2020/12/10 12:01:16;;;;;;;16.60;13.23;;;3.10;99.90;;;;;;5074271;28;20463;-66
2020/12/10 12:03:41;;;;;;;16.93;14.13;;;3.20;99.90;;;;;;5073912;28;20575;-66
2020/12/10 12:06:07;;;;;;;15.90;13.43;;;3.30;99.90;;;;;;5071903;28;20171;-66
2020/12/10 12:08:35;;;;;;;16.43;14.43;;;3.30;99.90;;;;;;5074505;28;20213;-66
2020/12/10 12:11:02;;;;;;;16.10;13.10;;;3.40;99.90;;;;;;5073960;28;20338;-66
2020/12/10 12:13:28;;;;;;;16.17;13.90;;;3.50;99.90;;;;;;5073817;28;20394;-66
2020/12/10 12:15:54;;;;;;;15.10;12.80;;;3.50;99.90;;;;;;5074063;28;20433;-66
2020/12/10 12:18:20;;;;;;;17.53;13.20;;;3.50;99.90;;;;;;5073032;28;20920;-66
2020/12/10 12:20:45;;;;;;;18.57;13.90;;;3.50;99.90;;;;;;5073262;28;20489;-66
2020/12/10 12:23:12;;;;;;;14.80;12.70;;;3.60;99.90;;;;;;5073763;28;20418;-66
2020/12/10 12:25:38;;;;;;;16.53;13.47;;;3.60;99.90;;;;;;5077723;28;20182;-66
2020/12/10 12:28:04;;;;;;;16.00;12.50;;;3.50;99.90;;;;;;5076078;28;20505;-66
2020/12/10 12:30:29;;;;;;;16.17;13.23;;;3.50;99.90;;;;;;5079730;28;20417;-65
2020/12/10 12:32:55;;;;;;;18.80;14.40;;;3.40;99.90;;;;;;5073611;28;20435;-66
2020/12/10 12:35:22;;;;;;;16.67;14.00;;;3.40;99.90;;;;;;5063261;28;20186;-66
2020/12/10 12:38:07;;;;;;;14.90;12.60;;;3.40;99.90;;;;;;5073666;28;21013;-66
2020/12/10 12:40:33;;;;;;;15.80;13.20;;;3.40;99.90;;;;;;5072330;28;20866;-66
2020/12/10 12:43:00;;;;;;;14.57;12.90;;;3.40;99.90;;;;;;5092024;28;20482;-66
2020/12/10 12:45:26;;;;;;;15.77;13.50;;;3.50;99.90;;;;;;5072195;28;20182;-66
2020/12/10 12:47:53;;;;;;;15.63;13.37;;;3.50;99.90;;;;;;5068012;28;20429;-66
2020/12/10 12:50:19;;;;;;;14.50;12.87;;;3.60;99.90;;;;;;5073297;28;20988;-65
2020/12/10 12:52:44;;;;;;;14.70;12.60;;;3.60;99.90;;;;;;5073044;28;20639;-66
2020/12/10 12:55:10;;;;;;;14.63;12.63;;;3.70;99.90;;;;;;5072705;28;20167;-66
2020/12/10 12:57:35;;;;;;;13.87;11.90;;;3.70;99.90;;;;;;5072874;28;20202;-66
2020/12/10 13:00:01;;;;;;;17.27;12.40;;;3.70;99.90;;;;;;5074254;28;20179;-66
2020/12/10 13:02:27;;;;;;;15.33;11.03;;;3.80;99.90;;;;;;5069181;28;20206;-66
2020/12/10 13:04:52;;;;;;;15.90;12.60;;;3.70;99.90;;;;;;5072397;28;20183;-66
2020/12/10 13:07:20;;;;;;;15.57;12.47;;;3.70;99.90;;;;;;5088048;28;20163;-66
2020/12/10 13:09:46;;;;;;;14.90;10.93;;;3.60;99.90;;;;;;5081272;28;20178;-66